createdAt,value
2022-07-26T00:01:40.684Z,29.00
2022-07-26T00:04:07.919Z,29.00
2022-07-26T00:06:35.097Z,29.00
2022-07-26T00:09:02.311Z,28.90
2022-07-26T00:11:30.467Z,28.90
2022-07-26T00:13:57.606Z,28.90
2022-07-26T00:16:24.841Z,28.90
2022-07-26T00:18:51.884Z,28.90
2022-07-26T00:21:19.005Z,28.80
2022-07-26T00:23:46.113Z,28.80
2022-07-26T00:26:13.078Z,28.70
2022-07-26T00:28:41.497Z,28.70
2022-07-26T00:31:09.094Z,28.70
2022-07-26T00:33:36.321Z,28.60
2022-07-26T00:36:03.667Z,28.60
2022-07-26T00:38:30.744Z,28.60
2022-07-26T00:40:57.798Z,28.60
2022-07-26T00:43:24.962Z,28.60
2022-07-26T00:45:52.099Z,28.50
2022-07-26T00:48:19.162Z,28.50
2022-07-26T00:50:46.633Z,28.50
2022-07-26T00:53:13.906Z,28.50
2022-07-26T00:55:41.014Z,28.40
2022-07-26T00:58:08.075Z,28.40
2022-07-26T01:00:35.349Z,28.40
2022-07-26T01:03:02.737Z,28.40
2022-07-26T01:05:30.313Z,28.30
2022-07-26T01:07:58.472Z,28.30
2022-07-26T01:10:25.844Z,28.30
2022-07-26T01:12:52.935Z,28.30
2022-07-26T01:15:20.097Z,28.20
2022-07-26T01:17:47.469Z,28.20
2022-07-26T01:20:15.561Z,28.20
2022-07-26T01:22:42.657Z,28.20
2022-07-26T01:25:10.076Z,28.20
2022-07-26T01:27:40.375Z,28.30
2022-07-26T01:30:10.171Z,28.30
2022-07-26T01:32:37.561Z,28.30
2022-07-26T01:35:06.623Z,28.30
2022-07-26T01:37:33.740Z,28.30
2022-07-26T01:40:00.746Z,28.30
2022-07-26T01:42:27.870Z,28.30
2022-07-26T01:44:54.979Z,28.30
2022-07-26T01:47:22.040Z,28.30
2022-07-26T01:49:49.067Z,28.30
2022-07-26T01:52:16.054Z,28.30
2022-07-26T01:54:43.067Z,28.30
2022-07-26T01:57:10.326Z,28.20
2022-07-26T01:59:37.430Z,28.20
2022-07-26T02:02:04.707Z,28.10
2022-07-26T02:04:50.200Z,28.10
2022-07-26T02:07:17.181Z,28.10
2022-07-26T02:09:44.260Z,28.00
2022-07-26T02:12:11.287Z,28.00
2022-07-26T02:14:38.330Z,28.00
2022-07-26T02:17:05.510Z,28.00
2022-07-26T02:19:32.986Z,27.90
2022-07-26T02:22:00.478Z,27.90
2022-07-26T02:24:29.133Z,27.90
2022-07-26T02:27:00.546Z,27.90
2022-07-26T02:29:28.316Z,27.80
2022-07-26T02:31:56.286Z,27.80
2022-07-26T02:34:23.836Z,27.80
2022-07-26T02:36:51.380Z,27.70
2022-07-26T02:39:18.438Z,27.70
2022-07-26T02:41:45.812Z,27.70
2022-07-26T02:44:12.856Z,27.70
2022-07-26T02:46:39.965Z,27.60
2022-07-26T02:49:07.177Z,27.60
2022-07-26T02:51:34.415Z,27.60
2022-07-26T02:54:01.453Z,27.50
2022-07-26T02:56:28.601Z,27.50
2022-07-26T02:58:55.756Z,27.50
2022-07-26T03:01:22.852Z,27.50
2022-07-26T03:03:51.024Z,27.50
2022-07-26T03:06:19.419Z,27.40
2022-07-26T03:08:47.320Z,27.40
2022-07-26T03:11:14.558Z,27.40
2022-07-26T03:13:41.560Z,27.40
2022-07-26T03:16:08.910Z,27.30
2022-07-26T03:18:36.456Z,27.30
2022-07-26T03:21:03.750Z,27.30
2022-07-26T03:23:33.510Z,27.20
2022-07-26T03:26:02.061Z,27.20
2022-07-26T03:28:33.636Z,27.20
2022-07-26T03:31:00.938Z,27.10
2022-07-26T03:33:28.965Z,27.00
2022-07-26T03:35:56.240Z,27.00
2022-07-26T03:38:23.336Z,27.00
2022-07-26T03:40:50.485Z,27.00
2022-07-26T03:43:22.564Z,27.00
2022-07-26T03:45:50.714Z,26.90
2022-07-26T03:48:18.020Z,26.90
2022-07-26T03:50:45.023Z,26.80
2022-07-26T03:53:12.130Z,26.80
2022-07-26T03:55:57.628Z,26.80
2022-07-26T03:58:24.632Z,26.80
2022-07-26T04:00:51.696Z,26.80
2022-07-26T04:03:18.736Z,26.70
2022-07-26T04:05:48.879Z,26.70
2022-07-26T04:08:16.794Z,26.70
2022-07-26T04:10:53.399Z,26.60
2022-07-26T04:13:20.875Z,26.60
2022-07-26T04:15:47.886Z,26.60
2022-07-26T04:18:14.869Z,26.60
2022-07-26T04:20:42.648Z,26.60
2022-07-26T04:23:11.097Z,26.60
2022-07-26T04:25:41.667Z,26.60
2022-07-26T04:28:09.850Z,26.70
2022-07-26T04:30:37.425Z,26.70
2022-07-26T04:33:05.530Z,26.80
2022-07-26T04:35:33.191Z,26.80
2022-07-26T04:38:00.284Z,26.80
2022-07-26T04:40:29.249Z,26.90
2022-07-26T04:42:56.461Z,26.90
2022-07-26T04:45:23.559Z,26.90
2022-07-26T04:47:50.946Z,26.90
2022-07-26T04:50:19.822Z,26.90
2022-07-26T04:52:47.345Z,27.00
2022-07-26T04:55:14.901Z,27.00
2022-07-26T04:57:42.677Z,27.10
2022-07-26T05:00:27.991Z,27.10
2022-07-26T05:02:58.609Z,27.20
2022-07-26T05:05:28.148Z,27.30
2022-07-26T05:07:58.156Z,27.40
2022-07-26T05:10:37.115Z,27.50
2022-07-26T05:13:05.816Z,27.60
2022-07-26T05:15:35.430Z,27.60
2022-07-26T05:18:08.915Z,27.70
2022-07-26T05:20:38.576Z,27.70
2022-07-26T05:23:05.629Z,27.80
2022-07-26T05:25:32.887Z,27.80
2022-07-26T05:28:00.010Z,27.90
2022-07-26T05:30:27.518Z,27.80
2022-07-26T05:32:54.793Z,27.90
2022-07-26T05:35:22.022Z,27.90
2022-07-26T05:37:49.375Z,28.00
2022-07-26T05:40:16.861Z,28.10
2022-07-26T05:42:43.939Z,28.20
2022-07-26T05:45:11.290Z,28.20
2022-07-26T05:47:38.352Z,28.20
2022-07-26T05:50:07.018Z,28.20
2022-07-26T05:52:34.066Z,28.20
2022-07-26T05:55:01.162Z,28.30
2022-07-26T05:57:28.213Z,28.30
2022-07-26T05:59:55.246Z,28.40
2022-07-26T06:02:22.255Z,28.50
2022-07-26T06:04:49.511Z,28.60
2022-07-26T06:07:16.638Z,28.70
2022-07-26T06:09:44.061Z,28.90
2022-07-26T06:12:11.174Z,28.90
2022-07-26T06:14:38.362Z,29.00
2022-07-26T06:17:05.485Z,29.20
2022-07-26T06:19:33.038Z,29.20
2022-07-26T06:22:00.402Z,29.30
2022-07-26T06:24:27.813Z,29.40
2022-07-26T06:27:04.483Z,29.40
2022-07-26T06:29:32.772Z,29.50
2022-07-26T06:32:00.141Z,29.60
2022-07-26T06:34:27.278Z,29.70
2022-07-26T06:36:54.352Z,29.80
2022-07-26T06:39:21.556Z,30.00
2022-07-26T06:41:48.826Z,30.10
2022-07-26T06:44:22.842Z,30.20
2022-07-26T06:46:50.087Z,30.30
2022-07-26T06:49:20.762Z,30.40
2022-07-26T06:51:49.600Z,30.50
2022-07-26T06:54:16.659Z,30.60
2022-07-26T06:56:43.765Z,30.80
2022-07-26T06:59:10.811Z,30.90
2022-07-26T07:01:57.956Z,31.00
2022-07-26T07:04:24.978Z,31.20
2022-07-26T07:06:52.032Z,31.30
2022-07-26T07:09:20.075Z,31.40
2022-07-26T07:11:51.842Z,31.50
2022-07-26T07:14:23.509Z,31.60
2022-07-26T07:16:50.644Z,31.80
2022-07-26T07:19:17.789Z,31.90
2022-07-26T07:21:45.048Z,32.00
2022-07-26T07:24:12.257Z,32.10
2022-07-26T07:26:39.448Z,32.20
2022-07-26T07:29:06.490Z,32.30
2022-07-26T07:31:47.822Z,32.20
2022-07-26T07:34:19.473Z,32.30
2022-07-26T07:36:47.064Z,32.50
2022-07-26T07:39:17.489Z,32.60
2022-07-26T07:41:45.953Z,32.70
2022-07-26T07:44:13.308Z,32.70
2022-07-26T07:46:40.957Z,32.70
2022-07-26T07:49:08.491Z,32.70
2022-07-26T07:51:36.150Z,32.80
2022-07-26T07:54:05.813Z,32.90
2022-07-26T07:56:33.584Z,33.10
2022-07-26T07:59:00.596Z,33.20
2022-07-26T08:01:39.536Z,33.40
2022-07-26T08:04:08.955Z,33.60
2022-07-26T08:06:36.530Z,33.70
2022-07-26T08:09:06.328Z,33.70
2022-07-26T08:11:34.300Z,33.70
2022-07-26T08:14:01.890Z,33.60
2022-07-26T08:16:29.143Z,33.60
2022-07-26T08:19:08.818Z,33.70
2022-07-26T08:21:36.149Z,33.80
2022-07-26T08:24:03.486Z,33.90
2022-07-26T08:26:30.512Z,34.20
2022-07-26T08:28:59.799Z,34.30
2022-07-26T08:31:28.904Z,34.50
2022-07-26T08:33:56.198Z,34.60
2022-07-26T08:36:23.443Z,34.60
2022-07-26T08:38:50.504Z,34.60
2022-07-26T08:41:18.636Z,34.60
2022-07-26T08:43:52.343Z,34.60
2022-07-26T08:46:26.972Z,34.50
2022-07-26T08:48:56.381Z,34.60
2022-07-26T08:51:25.147Z,34.70
2022-07-26T08:54:02.218Z,34.80
2022-07-26T08:56:32.955Z,34.90
2022-07-26T08:59:02.592Z,35.00
2022-07-26T09:01:29.712Z,35.10
2022-07-26T09:03:56.827Z,35.20
2022-07-26T09:06:26.294Z,35.30
2022-07-26T09:09:11.569Z,35.40
2022-07-26T09:11:38.779Z,35.40
2022-07-26T09:14:06.734Z,35.40
2022-07-26T09:16:38.808Z,35.40
2022-07-26T09:19:22.858Z,35.50
2022-07-26T09:21:51.055Z,35.70
2022-07-26T09:24:39.200Z,35.80
2022-07-26T09:27:08.500Z,36.00
2022-07-26T09:29:57.000Z,36.30
2022-07-26T09:32:26.052Z,36.40
2022-07-26T09:35:24.079Z,36.60
2022-07-26T09:37:56.214Z,36.60
2022-07-26T09:40:23.397Z,36.40
2022-07-26T09:43:23.955Z,36.40
2022-07-26T09:46:05.039Z,36.30
2022-07-26T09:48:52.170Z,36.20
2022-07-26T09:51:38.744Z,36.30
2022-07-26T09:54:06.926Z,36.40
2022-07-26T09:56:44.254Z,36.60
2022-07-26T09:59:14.202Z,36.80
2022-07-26T10:01:41.481Z,36.90
2022-07-26T10:04:09.093Z,37.00
2022-07-26T10:06:36.266Z,36.90
2022-07-26T10:09:04.855Z,36.90
2022-07-26T10:11:53.076Z,37.00
2022-07-26T10:14:36.549Z,37.00
2022-07-26T10:17:31.094Z,37.20
2022-07-26T10:20:09.289Z,37.40
2022-07-26T10:22:46.692Z,37.50
2022-07-26T10:25:20.162Z,37.50
2022-07-26T10:27:52.610Z,37.50
2022-07-26T10:30:19.687Z,37.50
2022-07-26T10:33:13.405Z,37.50
2022-07-26T10:35:43.406Z,37.50
2022-07-26T10:38:22.754Z,37.30
2022-07-26T10:41:01.367Z,37.20
2022-07-26T10:43:44.525Z,37.20
2022-07-26T10:46:20.439Z,37.20
2022-07-26T10:48:56.792Z,37.40
2022-07-26T10:51:36.572Z,37.60
2022-07-26T10:54:06.164Z,37.80
2022-07-26T10:56:34.226Z,38.10
2022-07-26T10:59:02.221Z,38.30
2022-07-26T11:01:37.983Z,38.30
2022-07-26T11:04:07.677Z,38.20
2022-07-26T11:06:35.101Z,38.30
2022-07-26T11:09:10.894Z,38.30
2022-07-26T11:11:38.718Z,38.30
2022-07-26T11:14:07.435Z,38.30
2022-07-26T11:16:41.863Z,38.30
2022-07-26T11:19:39.521Z,38.20
2022-07-26T11:22:06.490Z,38.20
2022-07-26T11:24:40.703Z,38.20
2022-07-26T11:27:07.930Z,38.20
2022-07-26T11:29:40.761Z,38.20
2022-07-26T11:32:18.641Z,38.00
2022-07-26T11:34:46.669Z,37.80
2022-07-26T11:37:14.452Z,37.80
2022-07-26T11:39:41.464Z,37.90
2022-07-26T11:42:19.681Z,37.90
2022-07-26T11:44:47.811Z,38.00
2022-07-26T11:47:25.614Z,38.10
2022-07-26T11:52:40.988Z,38.40
2022-07-26T11:55:08.697Z,38.50
2022-07-26T11:57:35.869Z,38.50
2022-07-26T12:00:03.765Z,38.60
2022-07-26T12:02:40.047Z,38.70
2022-07-26T12:05:22.580Z,38.80
2022-07-26T12:07:55.389Z,39.00
2022-07-26T12:10:22.843Z,39.10
2022-07-26T12:12:50.005Z,39.30
2022-07-26T12:15:17.117Z,39.40
2022-07-26T12:18:02.151Z,39.40
2022-07-26T12:20:29.190Z,39.40
2022-07-26T12:23:00.754Z,39.50
2022-07-26T12:25:29.206Z,39.60
2022-07-26T12:27:56.910Z,39.70
2022-07-26T12:30:25.627Z,39.80
2022-07-26T12:33:02.328Z,39.80
2022-07-26T12:35:37.986Z,39.70
2022-07-26T12:38:05.194Z,39.30
2022-07-26T12:40:41.637Z,38.90
2022-07-26T12:43:09.435Z,38.50
2022-07-26T12:45:38.156Z,38.10
2022-07-26T12:48:12.666Z,37.80
2022-07-26T12:50:39.968Z,37.60
2022-07-26T12:53:09.027Z,37.60
2022-07-26T12:55:39.731Z,37.50
2022-07-26T12:58:06.785Z,37.10
2022-07-26T13:00:33.897Z,36.80
2022-07-26T13:03:00.999Z,36.50
2022-07-26T13:05:28.069Z,36.40
2022-07-26T13:07:55.608Z,36.20
2022-07-26T13:10:33.455Z,36.10
2022-07-26T13:13:02.045Z,36.10
2022-07-26T13:15:36.416Z,36.10
2022-07-26T13:18:08.898Z,36.00
2022-07-26T13:20:39.859Z,35.90
2022-07-26T13:23:13.145Z,36.00
2022-07-26T13:25:43.167Z,36.20
2022-07-26T13:28:10.261Z,36.50
2022-07-26T13:30:39.555Z,36.80
2022-07-26T13:33:07.255Z,37.10
2022-07-26T13:35:34.445Z,37.30
2022-07-26T13:38:01.850Z,37.50
2022-07-26T13:40:31.457Z,37.70
2022-07-26T13:42:59.515Z,37.80
2022-07-26T13:45:28.921Z,37.80
2022-07-26T13:48:00.497Z,37.90
2022-07-26T13:50:28.488Z,37.90
2022-07-26T13:52:56.751Z,37.80
2022-07-26T13:55:24.582Z,37.90
2022-07-26T13:57:55.840Z,37.90
2022-07-26T14:00:28.897Z,38.00
2022-07-26T14:02:57.958Z,38.00
2022-07-26T14:05:26.303Z,38.00
2022-07-26T14:07:54.435Z,38.00
2022-07-26T14:10:23.050Z,37.90
2022-07-26T14:12:50.603Z,37.90
2022-07-26T14:15:22.072Z,37.70
2022-07-26T14:17:52.971Z,37.40
2022-07-26T14:20:20.751Z,37.30
2022-07-26T14:22:48.401Z,37.20
2022-07-26T14:25:15.663Z,37.20
2022-07-26T14:27:42.746Z,37.20
2022-07-26T14:30:10.182Z,37.10
2022-07-26T14:32:37.334Z,37.10
2022-07-26T14:35:05.457Z,37.00
2022-07-26T14:37:43.810Z,37.00
2022-07-26T14:40:16.994Z,36.90
2022-07-26T14:42:45.275Z,36.90
2022-07-26T14:45:13.262Z,36.80
2022-07-26T14:47:40.692Z,36.60
2022-07-26T14:50:09.242Z,36.60
2022-07-26T14:52:41.557Z,36.60
2022-07-26T14:55:09.639Z,36.60
2022-07-26T14:57:39.435Z,36.60
2022-07-26T15:00:11.703Z,36.70
2022-07-26T15:02:44.176Z,36.70
2022-07-26T15:05:12.540Z,36.60
2022-07-26T15:07:41.234Z,36.60
2022-07-26T15:10:10.543Z,36.60
2022-07-26T15:12:38.557Z,36.50
2022-07-26T15:15:07.195Z,36.50
2022-07-26T15:17:35.089Z,36.50
2022-07-26T15:20:03.065Z,36.40
2022-07-26T15:22:30.071Z,36.40
2022-07-26T15:24:57.098Z,36.40
2022-07-26T15:27:24.103Z,36.30
2022-07-26T15:29:51.147Z,36.30
2022-07-26T15:32:19.880Z,36.20
2022-07-26T15:34:47.004Z,36.10
2022-07-26T15:37:14.040Z,36.10
2022-07-26T15:39:41.408Z,36.00
2022-07-26T15:42:09.857Z,36.00
2022-07-26T15:44:38.780Z,36.00
2022-07-26T15:47:06.068Z,35.90
2022-07-26T15:49:34.194Z,35.90
2022-07-26T15:52:09.679Z,35.80
2022-07-26T15:54:36.729Z,35.70
2022-07-26T15:57:04.041Z,35.70
2022-07-26T15:59:31.101Z,35.70
2022-07-26T16:01:58.270Z,35.60
2022-07-26T16:04:25.386Z,35.50
2022-07-26T16:06:52.573Z,35.40
2022-07-26T16:09:20.090Z,35.40
2022-07-26T16:11:48.406Z,35.40
2022-07-26T16:14:16.776Z,35.20
2022-07-26T16:16:44.506Z,35.20
2022-07-26T16:19:11.929Z,35.10
2022-07-26T16:21:40.483Z,35.00
2022-07-26T16:24:08.140Z,35.00
2022-07-26T16:26:36.242Z,34.90
2022-07-26T16:29:04.557Z,34.80
2022-07-26T16:31:32.981Z,34.80
2022-07-26T16:34:00.431Z,34.80
2022-07-26T16:36:28.023Z,34.70
2022-07-26T16:38:55.198Z,34.70
2022-07-26T16:41:22.282Z,34.70
2022-07-26T16:43:49.320Z,34.60
2022-07-26T16:46:16.870Z,34.60
2022-07-26T16:48:44.316Z,34.50
2022-07-26T16:51:13.493Z,34.50
2022-07-26T16:53:41.131Z,34.40
2022-07-26T16:56:08.329Z,34.30
2022-07-26T16:58:37.569Z,34.10
2022-07-26T17:01:04.703Z,34.10
2022-07-26T17:03:31.747Z,33.90
2022-07-26T17:06:02.909Z,33.80
2022-07-26T17:08:33.020Z,33.70
2022-07-26T17:11:00.240Z,33.60
2022-07-26T17:13:27.555Z,33.50
2022-07-26T17:15:54.721Z,33.40
2022-07-26T17:18:22.001Z,33.30
2022-07-26T17:20:49.054Z,33.20
2022-07-26T17:23:18.421Z,33.10
2022-07-26T17:25:46.207Z,33.10
2022-07-26T17:28:13.951Z,32.90
2022-07-26T17:30:41.034Z,32.90
2022-07-26T17:33:08.196Z,32.80
2022-07-26T17:35:35.348Z,32.80
2022-07-26T17:38:02.438Z,32.70
2022-07-26T17:40:31.675Z,32.70
2022-07-26T17:43:00.046Z,32.70
2022-07-26T17:45:27.155Z,32.70
2022-07-26T17:47:54.246Z,32.60
2022-07-26T17:50:38.018Z,32.60
2022-07-26T17:53:06.203Z,32.60
2022-07-26T17:55:33.830Z,32.60
2022-07-26T17:58:00.977Z,32.50
2022-07-26T18:00:29.070Z,32.40
2022-07-26T18:02:57.049Z,32.40
2022-07-26T18:05:30.148Z,32.30
2022-07-26T18:08:00.560Z,32.30
2022-07-26T18:10:28.253Z,32.20
2022-07-26T18:12:55.536Z,32.10
2022-07-26T18:15:22.671Z,32.00
2022-07-26T18:17:49.703Z,31.90
2022-07-26T18:20:16.838Z,31.80
2022-07-26T18:22:47.058Z,31.80
2022-07-26T18:25:17.545Z,31.70
2022-07-26T18:27:44.625Z,31.60
2022-07-26T18:30:12.086Z,31.50
2022-07-26T18:32:39.243Z,31.50
2022-07-26T18:35:06.707Z,31.40
2022-07-26T18:37:33.830Z,31.30
2022-07-26T18:40:02.281Z,31.30
2022-07-26T18:42:29.413Z,31.20
2022-07-26T18:44:56.488Z,31.20
2022-07-26T18:47:23.510Z,31.20
2022-07-26T18:49:50.842Z,31.10
2022-07-26T18:52:28.162Z,31.10
2022-07-26T18:54:58.682Z,31.00
2022-07-26T18:57:25.698Z,30.90
2022-07-26T18:59:52.714Z,30.90
2022-07-26T19:02:19.858Z,30.90
2022-07-26T19:04:46.909Z,30.80
2022-07-26T19:07:14.880Z,30.80
2022-07-26T19:09:42.037Z,30.70
2022-07-26T19:12:10.524Z,30.70
2022-07-26T19:14:37.557Z,30.70
2022-07-26T19:17:09.733Z,30.60
2022-07-26T19:19:38.156Z,30.50
2022-07-26T19:22:05.380Z,30.50
2022-07-26T19:24:41.432Z,30.40
2022-07-26T19:27:09.590Z,30.40
2022-07-26T19:29:39.350Z,30.40
2022-07-26T19:32:07.053Z,30.30
2022-07-26T19:34:34.369Z,30.30
2022-07-26T19:37:01.621Z,30.20
2022-07-26T19:39:28.722Z,30.20
2022-07-26T19:41:56.372Z,30.10
2022-07-26T19:44:23.549Z,30.10
2022-07-26T19:46:55.554Z,30.10
2022-07-26T19:49:24.454Z,30.00
2022-07-26T19:51:51.510Z,30.00
2022-07-26T19:54:18.600Z,29.90
2022-07-26T19:56:45.742Z,29.90
2022-07-26T19:59:13.673Z,29.90
2022-07-26T20:01:43.055Z,29.80
2022-07-26T20:04:10.408Z,29.80
2022-07-26T20:06:37.472Z,29.80
2022-07-26T20:09:05.221Z,29.70
2022-07-26T20:11:35.120Z,29.70
2022-07-26T20:14:03.171Z,29.70
2022-07-26T20:16:30.545Z,29.70
2022-07-26T20:18:58.023Z,29.70
2022-07-26T20:21:25.051Z,29.70
2022-07-26T20:23:52.238Z,29.70
2022-07-26T20:26:19.902Z,29.70
2022-07-26T20:28:47.450Z,29.70
2022-07-26T20:31:17.600Z,29.70
2022-07-26T20:33:44.631Z,29.60
2022-07-26T20:36:11.945Z,29.60
2022-07-26T20:38:39.023Z,29.60
2022-07-26T20:41:06.440Z,29.60
2022-07-26T20:43:34.535Z,29.50
2022-07-26T20:46:02.156Z,29.50
2022-07-26T20:48:29.348Z,29.50
2022-07-26T20:50:56.374Z,29.40
2022-07-26T20:53:23.482Z,29.40
2022-07-26T20:55:50.773Z,29.30
2022-07-26T20:58:18.227Z,29.20
2022-07-26T21:00:45.225Z,29.20
2022-07-26T21:03:13.817Z,29.20
2022-07-26T21:05:41.010Z,29.10
2022-07-26T21:08:08.134Z,29.10
2022-07-26T21:10:35.265Z,29.10
2022-07-26T21:13:02.265Z,29.10
2022-07-26T21:15:30.528Z,29.10
2022-07-26T21:17:58.299Z,29.10
2022-07-26T21:20:25.530Z,29.10
2022-07-26T21:22:52.591Z,29.10
2022-07-26T21:25:19.728Z,29.10
2022-07-26T21:27:46.839Z,29.10
2022-07-26T21:30:14.156Z,29.00
2022-07-26T21:32:41.212Z,29.00
2022-07-26T21:35:08.474Z,29.00
2022-07-26T21:37:35.508Z,29.00
2022-07-26T21:40:02.818Z,29.00
2022-07-26T21:42:29.932Z,29.00
2022-07-26T21:44:57.183Z,29.00
2022-07-26T21:47:24.269Z,29.00
2022-07-26T21:49:51.322Z,28.90
2022-07-26T21:52:18.385Z,28.90
2022-07-26T21:54:45.415Z,28.90
2022-07-26T21:57:12.499Z,28.90
2022-07-26T21:59:39.553Z,28.90
2022-07-26T22:02:06.596Z,28.90
2022-07-26T22:04:33.677Z,28.80
2022-07-26T22:07:00.688Z,28.80
2022-07-26T22:09:27.701Z,28.80
2022-07-26T22:11:54.786Z,28.80
2022-07-26T22:14:22.194Z,28.70
2022-07-26T22:16:49.450Z,28.70
2022-07-26T22:19:16.616Z,28.70
2022-07-26T22:21:43.693Z,28.70
2022-07-26T22:24:10.893Z,28.60
2022-07-26T22:26:37.972Z,28.60
2022-07-26T22:29:04.996Z,28.60
2022-07-26T22:31:32.219Z,28.50
2022-07-26T22:33:59.418Z,28.50
2022-07-26T22:36:26.486Z,28.50
2022-07-26T22:38:53.714Z,28.50
2022-07-26T22:41:20.743Z,28.40
2022-07-26T22:43:47.778Z,28.40
2022-07-26T22:46:14.977Z,28.40
2022-07-26T22:48:45.946Z,28.40
2022-07-26T22:51:14.707Z,28.40
2022-07-26T22:53:41.864Z,28.40
2022-07-26T22:56:08.954Z,28.30
2022-07-26T22:58:35.981Z,28.30
2022-07-26T23:01:03.117Z,28.30
2022-07-26T23:03:30.211Z,28.30
2022-07-26T23:05:59.506Z,28.30
2022-07-26T23:08:46.666Z,28.30
2022-07-26T23:11:14.330Z,28.20
2022-07-26T23:13:41.305Z,28.20
2022-07-26T23:16:08.410Z,28.20
2022-07-26T23:18:35.543Z,28.20
2022-07-26T23:21:04.061Z,28.20
2022-07-26T23:23:31.560Z,28.10
2022-07-26T23:25:59.722Z,28.10
2022-07-26T23:28:35.454Z,28.20
2022-07-26T23:31:09.523Z,28.10
2022-07-26T23:33:51.894Z,28.10
2022-07-26T23:36:28.386Z,28.10
2022-07-26T23:38:57.429Z,28.00
2022-07-26T23:41:25.586Z,28.00
2022-07-26T23:43:54.184Z,28.00
2022-07-26T23:46:22.335Z,28.00
2022-07-26T23:48:50.182Z,28.00
2022-07-26T23:51:19.504Z,27.90
2022-07-26T23:53:47.505Z,27.90
2022-07-26T23:56:15.508Z,27.90
2022-07-26T23:58:42.560Z,27.90
